sensor_id;sensor_type;location;lat;lon;timestamp;pressure;altitude;pressure_sealevel;temperature;humidity
48244;BME280;34053;51.088;6.572;2023-06-24T00:01:33;101836.31;;;22.36;55.50
48244;BME280;34053;51.088;6.572;2023-06-24T00:04:24;101841.94;;;22.31;55.22
48244;BME280;34053;51.088;6.572;2023-06-24T00:07:15;101835.63;;;22.32;55.88
48244;BME280;34053;51.088;6.572;2023-06-24T00:10:06;101844.88;;;22.27;55.53
48244;BME280;34053;51.088;6.572;2023-06-24T00:12:58;101834.28;;;22.25;55.22
48244;BME280;34053;51.088;6.572;2023-06-24T00:15:51;101832.72;;;22.21;55.49
48244;BME280;34053;51.088;6.572;2023-06-24T00:18:42;101844.56;;;22.17;55.50
48244;BME280;34053;51.088;6.572;2023-06-24T00:21:33;101830.69;;;22.10;55.30
48244;BME280;34053;51.088;6.572;2023-06-24T00:24:28;101834.13;;;22.12;56.09
48244;BME280;34053;51.088;6.572;2023-06-24T00:27:20;101834.41;;;22.08;55.80
48244;BME280;34053;51.088;6.572;2023-06-24T00:30:11;101833.47;;;22.09;55.66
48244;BME280;34053;51.088;6.572;2023-06-24T00:33:02;101828.28;;;22.06;56.37
48244;BME280;34053;51.088;6.572;2023-06-24T00:35:53;101838.28;;;22.02;56.10
48244;BME280;34053;51.088;6.572;2023-06-24T00:38:48;101833.22;;;21.97;56.26
48244;BME280;34053;51.088;6.572;2023-06-24T00:41:42;101833.38;;;21.94;56.62
48244;BME280;34053;51.088;6.572;2023-06-24T00:44:33;101838.13;;;21.89;56.25
48244;BME280;34053;51.088;6.572;2023-06-24T00:47:24;101832.88;;;21.88;56.25
48244;BME280;34053;51.088;6.572;2023-06-24T00:50:15;101833.06;;;21.84;56.29
48244;BME280;34053;51.088;6.572;2023-06-24T00:53:06;101832.28;;;21.82;56.59
48244;BME280;34053;51.088;6.572;2023-06-24T00:55:58;101834.19;;;21.80;56.38
48244;BME280;34053;51.088;6.572;2023-06-24T00:58:54;101833.16;;;21.83;56.53
48244;BME280;34053;51.088;6.572;2023-06-24T01:01:46;101826.44;;;21.76;56.56
48244;BME280;34053;51.088;6.572;2023-06-24T01:04:37;101824.63;;;21.76;56.83
48244;BME280;34053;51.088;6.572;2023-06-24T01:07:29;101825.56;;;21.75;57.21
48244;BME280;34053;51.088;6.572;2023-06-24T01:10:21;101833.78;;;21.72;57.31
48244;BME280;34053;51.088;6.572;2023-06-24T01:13:13;101837.38;;;21.71;57.71
48244;BME280;34053;51.088;6.572;2023-06-24T01:16:10;101834.88;;;21.68;57.61
48244;BME280;34053;51.088;6.572;2023-06-24T01:32:01;101835.72;;;21.52;57.37
48244;BME280;34053;51.088;6.572;2023-06-24T01:37:52;101831.56;;;21.47;57.81
48244;BME280;34053;51.088;6.572;2023-06-24T01:40:45;101836.31;;;21.42;57.97
48244;BME280;34053;51.088;6.572;2023-06-24T01:43:37;101834.75;;;21.37;57.83
48244;BME280;34053;51.088;6.572;2023-06-24T01:46:30;101824.94;;;21.38;58.31
48244;BME280;34053;51.088;6.572;2023-06-24T01:49:21;101824.25;;;21.34;58.59
48244;BME280;34053;51.088;6.572;2023-06-24T01:52:14;101820.69;;;21.34;58.66
48244;BME280;34053;51.088;6.572;2023-06-24T01:55:06;101817.34;;;21.30;58.56
48244;BME280;34053;51.088;6.572;2023-06-24T01:58:02;101825.34;;;21.30;58.39
48244;BME280;34053;51.088;6.572;2023-06-24T02:00:54;101820.94;;;21.29;58.41
48244;BME280;34053;51.088;6.572;2023-06-24T02:03:47;101818.47;;;21.26;58.33
48244;BME280;34053;51.088;6.572;2023-06-24T02:06:41;101813.13;;;21.26;58.90
48244;BME280;34053;51.088;6.572;2023-06-24T02:09:33;101809.84;;;21.21;58.74
48244;BME280;34053;51.088;6.572;2023-06-24T02:12:25;101812.75;;;21.16;59.05
48244;BME280;34053;51.088;6.572;2023-06-24T02:15:18;101803.81;;;21.17;59.12
48244;BME280;34053;51.088;6.572;2023-06-24T02:18:11;101812.06;;;21.13;58.80
48244;BME280;34053;51.088;6.572;2023-06-24T02:21:04;101814.72;;;21.13;59.49
48244;BME280;34053;51.088;6.572;2023-06-24T02:23:56;101812.25;;;21.10;58.82
48244;BME280;34053;51.088;6.572;2023-06-24T02:26:48;101811.47;;;21.07;59.34
48244;BME280;34053;51.088;6.572;2023-06-24T02:29:40;101817.59;;;21.10;59.41
48244;BME280;34053;51.088;6.572;2023-06-24T02:32:32;101817.75;;;21.06;59.10
48244;BME280;34053;51.088;6.572;2023-06-24T02:35:23;101820.31;;;21.08;59.49
48244;BME280;34053;51.088;6.572;2023-06-24T02:38:14;101822.28;;;21.04;59.26
48244;BME280;34053;51.088;6.572;2023-06-24T02:41:05;101812.75;;;21.00;59.29
48244;BME280;34053;51.088;6.572;2023-06-24T02:43:56;101810.47;;;20.92;59.61
48244;BME280;34053;51.088;6.572;2023-06-24T02:46:47;101814.19;;;20.90;59.40
48244;BME280;34053;51.088;6.572;2023-06-24T02:49:42;101819.41;;;20.91;59.75
48244;BME280;34053;51.088;6.572;2023-06-24T02:52:37;101818.72;;;20.88;59.93
48244;BME280;34053;51.088;6.572;2023-06-24T02:55:28;101815.59;;;20.80;61.01
48244;BME280;34053;51.088;6.572;2023-06-24T02:58:21;101817.31;;;20.81;62.38
48244;BME280;34053;51.088;6.572;2023-06-24T03:01:12;101823.44;;;20.65;63.85
48244;BME280;34053;51.088;6.572;2023-06-24T03:04:03;101825.03;;;20.69;62.34
48244;BME280;34053;51.088;6.572;2023-06-24T03:06:54;101829.31;;;20.72;61.15
48244;BME280;34053;51.088;6.572;2023-06-24T03:09:45;101836.53;;;20.70;61.60
48244;BME280;34053;51.088;6.572;2023-06-24T03:12:36;101832.00;;;20.72;60.77
48244;BME280;34053;51.088;6.572;2023-06-24T03:15:27;101831.28;;;20.68;60.94
48244;BME280;34053;51.088;6.572;2023-06-24T03:18:19;101835.50;;;20.72;61.71
48244;BME280;34053;51.088;6.572;2023-06-24T03:21:10;101839.44;;;20.65;60.33
48244;BME280;34053;51.088;6.572;2023-06-24T03:24:01;101834.44;;;20.59;61.77
48244;BME280;34053;51.088;6.572;2023-06-24T03:26:52;101836.88;;;20.64;61.21
48244;BME280;34053;51.088;6.572;2023-06-24T03:29:47;101839.91;;;20.56;63.36
48244;BME280;34053;51.088;6.572;2023-06-24T03:32:38;101837.72;;;20.64;62.15
48244;BME280;34053;51.088;6.572;2023-06-24T03:35:28;101831.06;;;20.55;62.16
48244;BME280;34053;51.088;6.572;2023-06-24T03:38:22;101834.75;;;20.53;62.36
48244;BME280;34053;51.088;6.572;2023-06-24T03:41:19;101834.59;;;20.38;64.55
48244;BME280;34053;51.088;6.572;2023-06-24T03:44:16;101846.28;;;20.53;62.49
48244;BME280;34053;51.088;6.572;2023-06-24T03:47:26;101838.59;;;20.47;62.11
48244;BME280;34053;51.088;6.572;2023-06-24T03:50:17;101845.25;;;20.56;62.20
48244;BME280;34053;51.088;6.572;2023-06-24T03:53:11;101850.66;;;20.54;62.03
48244;BME280;34053;51.088;6.572;2023-06-24T03:56:02;101848.09;;;20.53;61.58
48244;BME280;34053;51.088;6.572;2023-06-24T03:58:59;101856.09;;;20.53;62.28
48244;BME280;34053;51.088;6.572;2023-06-24T04:01:50;101850.81;;;20.51;61.89
48244;BME280;34053;51.088;6.572;2023-06-24T04:04:45;101846.34;;;20.52;63.33
48244;BME280;34053;51.088;6.572;2023-06-24T04:08:06;101856.09;;;20.53;62.75
48244;BME280;34053;51.088;6.572;2023-06-24T04:10:58;101851.69;;;20.52;63.01
48244;BME280;34053;51.088;6.572;2023-06-24T04:13:54;101851.69;;;20.52;62.81
48244;BME280;34053;51.088;6.572;2023-06-24T04:17:26;101860.88;;;20.46;62.57
48244;BME280;34053;51.088;6.572;2023-06-24T04:20:30;101860.72;;;20.49;62.42
48244;BME280;34053;51.088;6.572;2023-06-24T04:23:57;101851.75;;;20.50;62.55
48244;BME280;34053;51.088;6.572;2023-06-24T04:26:51;101857.31;;;20.45;62.15
48244;BME280;34053;51.088;6.572;2023-06-24T04:33:33;101867.03;;;20.47;61.84
48244;BME280;34053;51.088;6.572;2023-06-24T04:36:23;101869.56;;;20.50;62.79
48244;BME280;34053;51.088;6.572;2023-06-24T04:39:14;101864.47;;;20.45;62.45
48244;BME280;34053;51.088;6.572;2023-06-24T04:42:05;101870.63;;;20.45;62.26
48244;BME280;34053;51.088;6.572;2023-06-24T04:44:56;101869.66;;;20.48;62.17
48244;BME280;34053;51.088;6.572;2023-06-24T04:47:47;101867.75;;;20.50;62.29
48244;BME280;34053;51.088;6.572;2023-06-24T04:50:38;101870.50;;;20.49;62.24
48244;BME280;34053;51.088;6.572;2023-06-24T04:53:29;101861.47;;;20.51;62.48
48244;BME280;34053;51.088;6.572;2023-06-24T04:56:20;101865.31;;;20.45;62.40
48244;BME280;34053;51.088;6.572;2023-06-24T04:59:11;101859.84;;;20.49;62.81
48244;BME280;34053;51.088;6.572;2023-06-24T05:02:02;101860.94;;;20.44;64.06
48244;BME280;34053;51.088;6.572;2023-06-24T05:04:53;101860.84;;;20.28;65.75
48244;BME280;34053;51.088;6.572;2023-06-24T05:07:44;101856.31;;;20.31;64.05
48244;BME280;34053;51.088;6.572;2023-06-24T05:10:34;101862.50;;;20.31;65.54
48244;BME280;34053;51.088;6.572;2023-06-24T05:13:27;101868.00;;;20.28;64.62
48244;BME280;34053;51.088;6.572;2023-06-24T05:16:18;101859.19;;;20.26;65.63
48244;BME280;34053;51.088;6.572;2023-06-24T05:19:09;101855.25;;;20.16;66.52
48244;BME280;34053;51.088;6.572;2023-06-24T05:22:00;101862.63;;;20.10;66.86
48244;BME280;34053;51.088;6.572;2023-06-24T05:24:51;101851.25;;;20.07;66.54
48244;BME280;34053;51.088;6.572;2023-06-24T05:27:42;101861.78;;;19.91;67.40
48244;BME280;34053;51.088;6.572;2023-06-24T05:30:35;101853.00;;;19.89;67.45
48244;BME280;34053;51.088;6.572;2023-06-24T05:33:26;101865.16;;;19.75;67.77
48244;BME280;34053;51.088;6.572;2023-06-24T05:36:19;101871.06;;;19.82;67.45
48244;BME280;34053;51.088;6.572;2023-06-24T05:39:10;101868.22;;;19.87;67.50
48244;BME280;34053;51.088;6.572;2023-06-24T05:42:02;101869.91;;;19.88;67.75
48244;BME280;34053;51.088;6.572;2023-06-24T05:44:53;101873.97;;;19.96;67.01
48244;BME280;34053;51.088;6.572;2023-06-24T05:47:44;101877.38;;;19.79;67.97
48244;BME280;34053;51.088;6.572;2023-06-24T05:50:37;101876.97;;;19.89;67.02
48244;BME280;34053;51.088;6.572;2023-06-24T05:53:28;101874.66;;;20.00;66.12
48244;BME280;34053;51.088;6.572;2023-06-24T05:56:20;101879.41;;;19.93;66.51
48244;BME280;34053;51.088;6.572;2023-06-24T05:59:11;101880.31;;;19.94;66.12
48244;BME280;34053;51.088;6.572;2023-06-24T06:02:02;101874.66;;;20.00;65.50
48244;BME280;34053;51.088;6.572;2023-06-24T06:04:53;101872.50;;;20.08;65.00
48244;BME280;34053;51.088;6.572;2023-06-24T06:07:44;101876.72;;;19.95;64.88
48244;BME280;34053;51.088;6.572;2023-06-24T06:10:35;101883.09;;;19.91;65.37
48244;BME280;34053;51.088;6.572;2023-06-24T06:13:25;101891.97;;;19.91;65.36
48244;BME280;34053;51.088;6.572;2023-06-24T06:16:16;101883.28;;;20.05;65.01
48244;BME280;34053;51.088;6.572;2023-06-24T06:19:07;101888.16;;;20.15;64.51
48244;BME280;34053;51.088;6.572;2023-06-24T06:21:58;101883.88;;;20.12;64.20
48244;BME280;34053;51.088;6.572;2023-06-24T06:24:48;101892.78;;;20.11;64.70
48244;BME280;34053;51.088;6.572;2023-06-24T06:27:39;101890.88;;;20.32;63.21
48244;BME280;34053;51.088;6.572;2023-06-24T06:30:30;101893.06;;;20.24;63.45
48244;BME280;34053;51.088;6.572;2023-06-24T06:33:21;101891.53;;;20.18;63.38
48244;BME280;34053;51.088;6.572;2023-06-24T06:36:12;101891.72;;;20.15;63.65
48244;BME280;34053;51.088;6.572;2023-06-24T06:39:02;101894.16;;;20.20;64.25
48244;BME280;34053;51.088;6.572;2023-06-24T06:41:53;101894.22;;;20.18;64.02
48244;BME280;34053;51.088;6.572;2023-06-24T06:44:44;101900.88;;;20.09;64.15
48244;BME280;34053;51.088;6.572;2023-06-24T06:47:35;101894.28;;;20.17;64.60
48244;BME280;34053;51.088;6.572;2023-06-24T06:50:26;101904.03;;;20.18;64.55
48244;BME280;34053;51.088;6.572;2023-06-24T06:53:16;101907.00;;;20.29;64.72
48244;BME280;34053;51.088;6.572;2023-06-24T06:56:07;101901.22;;;20.38;63.67
48244;BME280;34053;51.088;6.572;2023-06-24T06:58:58;101904.09;;;20.34;64.57
48244;BME280;34053;51.088;6.572;2023-06-24T07:01:49;101911.13;;;20.36;64.05
48244;BME280;34053;51.088;6.572;2023-06-24T07:04:39;101907.72;;;20.50;63.50
48244;BME280;34053;51.088;6.572;2023-06-24T07:07:30;101908.63;;;20.51;63.18
48244;BME280;34053;51.088;6.572;2023-06-24T07:10:21;101911.19;;;20.52;63.39
48244;BME280;34053;51.088;6.572;2023-06-24T07:13:12;101911.28;;;20.51;63.71
48244;BME280;34053;51.088;6.572;2023-06-24T07:16:03;101912.81;;;20.74;62.93
48244;BME280;34053;51.088;6.572;2023-06-24T07:18:54;101911.09;;;20.73;63.70
48244;BME280;34053;51.088;6.572;2023-06-24T07:21:45;101910.50;;;20.66;63.24
48244;BME280;34053;51.088;6.572;2023-06-24T07:24:35;101920.72;;;20.75;63.14
48244;BME280;34053;51.088;6.572;2023-06-24T07:27:26;101917.84;;;20.80;62.98
48244;BME280;34053;51.088;6.572;2023-06-24T07:30:17;101918.34;;;20.87;61.89
48244;BME280;34053;51.088;6.572;2023-06-24T07:33:08;101919.63;;;20.97;62.16
48244;BME280;34053;51.088;6.572;2023-06-24T07:35:59;101919.78;;;20.94;62.05
48244;BME280;34053;51.088;6.572;2023-06-24T07:38:49;101914.97;;;21.01;61.33
48244;BME280;34053;51.088;6.572;2023-06-24T07:41:40;101917.88;;;20.96;60.45
48244;BME280;34053;51.088;6.572;2023-06-24T07:44:33;101924.81;;;21.00;61.44
48244;BME280;34053;51.088;6.572;2023-06-24T07:47:23;101919.84;;;21.10;61.37
48244;BME280;34053;51.088;6.572;2023-06-24T07:50:14;101922.91;;;21.02;61.35
48244;BME280;34053;51.088;6.572;2023-06-24T07:53:05;101918.66;;;21.16;61.10
48244;BME280;34053;51.088;6.572;2023-06-24T07:55:56;101913.22;;;21.17;60.34
48244;BME280;34053;51.088;6.572;2023-06-24T07:58:47;101910.56;;;21.17;61.36
48244;BME280;34053;51.088;6.572;2023-06-24T08:01:38;101916.59;;;21.21;60.83
48244;BME280;34053;51.088;6.572;2023-06-24T08:04:28;101918.63;;;21.33;60.67
48244;BME280;34053;51.088;6.572;2023-06-24T08:07:19;101918.88;;;21.45;60.10
48244;BME280;34053;51.088;6.572;2023-06-24T08:10:10;101918.97;;;21.43;60.11
48244;BME280;34053;51.088;6.572;2023-06-24T08:13:01;101919.91;;;21.42;60.47
48244;BME280;34053;51.088;6.572;2023-06-24T08:15:52;101913.63;;;21.43;60.69
48244;BME280;34053;51.088;6.572;2023-06-24T08:18:42;101916.16;;;21.46;60.07
48244;BME280;34053;51.088;6.572;2023-06-24T08:21:34;101920.00;;;21.58;60.09
48244;BME280;34053;51.088;6.572;2023-06-24T08:24:25;101918.97;;;21.61;59.93
48244;BME280;34053;51.088;6.572;2023-06-24T08:27:16;101921.63;;;21.61;59.74
48244;BME280;34053;51.088;6.572;2023-06-24T08:30:07;101923.09;;;21.66;60.59
48244;BME280;34053;51.088;6.572;2023-06-24T08:32:58;101914.59;;;21.76;59.34
48244;BME280;34053;51.088;6.572;2023-06-24T08:35:49;101903.03;;;21.75;58.82
48244;BME280;34053;51.088;6.572;2023-06-24T08:38:40;101907.59;;;21.89;59.31
48244;BME280;34053;51.088;6.572;2023-06-24T08:41:30;101913.09;;;21.86;58.68
48244;BME280;34053;51.088;6.572;2023-06-24T08:44:21;101911.06;;;21.91;59.17
48244;BME280;34053;51.088;6.572;2023-06-24T08:47:12;101914.56;;;21.92;59.02
48244;BME280;34053;51.088;6.572;2023-06-24T08:50:09;101906.66;;;21.90;58.91
48244;BME280;34053;51.088;6.572;2023-06-24T08:53:03;101900.69;;;22.01;59.15
48244;BME280;34053;51.088;6.572;2023-06-24T08:55:58;101897.75;;;22.06;59.38
48244;BME280;34053;51.088;6.572;2023-06-24T08:58:49;101900.16;;;22.10;59.69
48244;BME280;34053;51.088;6.572;2023-06-24T09:01:39;101890.16;;;22.14;59.04
48244;BME280;34053;51.088;6.572;2023-06-24T09:04:30;101890.94;;;22.16;58.67
48244;BME280;34053;51.088;6.572;2023-06-24T09:07:27;101894.72;;;22.28;59.35
48244;BME280;34053;51.088;6.572;2023-06-24T09:10:35;101897.56;;;22.25;59.23
48244;BME280;34053;51.088;6.572;2023-06-24T09:13:36;101898.91;;;22.32;59.53
48244;BME280;34053;51.088;6.572;2023-06-24T09:16:28;101895.97;;;22.37;58.40
48244;BME280;34053;51.088;6.572;2023-06-24T09:19:23;101894.81;;;22.42;58.74
48244;BME280;34053;51.088;6.572;2023-06-24T09:22:14;101890.13;;;22.46;58.22
48244;BME280;34053;51.088;6.572;2023-06-24T09:25:08;101885.69;;;22.61;57.80
48244;BME280;34053;51.088;6.572;2023-06-24T09:28:02;101885.78;;;22.59;57.06
48244;BME280;34053;51.088;6.572;2023-06-24T09:31:06;101881.66;;;22.54;56.27
48244;BME280;34053;51.088;6.572;2023-06-24T09:33:57;101887.31;;;22.63;56.69
48244;BME280;34053;51.088;6.572;2023-06-24T09:36:53;101875.66;;;22.64;56.24
48244;BME280;34053;51.088;6.572;2023-06-24T09:39:44;101876.84;;;22.75;54.78
48244;BME280;34053;51.088;6.572;2023-06-24T09:42:36;101872.63;;;22.71;54.48
48244;BME280;34053;51.088;6.572;2023-06-24T09:45:28;101869.88;;;22.72;54.43
48244;BME280;34053;51.088;6.572;2023-06-24T09:48:19;101861.25;;;22.82;55.09
48244;BME280;34053;51.088;6.572;2023-06-24T09:51:11;101865.88;;;22.79;53.96
48244;BME280;34053;51.088;6.572;2023-06-24T09:54:07;101858.78;;;22.78;53.66
48244;BME280;34053;51.088;6.572;2023-06-24T09:57:01;101856.78;;;22.82;54.07
48244;BME280;34053;51.088;6.572;2023-06-24T09:59:53;101851.16;;;22.87;54.89
48244;BME280;34053;51.088;6.572;2023-06-24T10:02:45;101854.88;;;22.99;54.36
48244;BME280;34053;51.088;6.572;2023-06-24T10:05:37;101853.94;;;23.00;53.76
48244;BME280;34053;51.088;6.572;2023-06-24T10:08:29;101846.84;;;23.13;53.98
48244;BME280;34053;51.088;6.572;2023-06-24T10:11:52;101843.59;;;23.37;53.16
48244;BME280;34053;51.088;6.572;2023-06-24T10:14:43;101837.28;;;23.38;53.47
48244;BME280;34053;51.088;6.572;2023-06-24T10:17:34;101840.16;;;23.35;50.92
48244;BME280;34053;51.088;6.572;2023-06-24T10:20:25;101834.13;;;23.46;51.02
48244;BME280;34053;51.088;6.572;2023-06-24T10:23:16;101826.94;;;23.46;51.14
48244;BME280;34053;51.088;6.572;2023-06-24T10:26:22;101834.41;;;23.55;49.01
48244;BME280;34053;51.088;6.572;2023-06-24T10:29:14;101835.16;;;23.57;50.13
48244;BME280;34053;51.088;6.572;2023-06-24T10:32:08;101833.03;;;23.63;50.33
48244;BME280;34053;51.088;6.572;2023-06-24T10:34:59;101819.66;;;23.63;47.76
48244;BME280;34053;51.088;6.572;2023-06-24T10:37:56;101820.47;;;23.78;48.72
48244;BME280;34053;51.088;6.572;2023-06-24T10:40:48;101819.88;;;23.87;49.31
48244;BME280;34053;51.088;6.572;2023-06-24T10:43:39;101812.97;;;23.83;49.48
48244;BME280;34053;51.088;6.572;2023-06-24T10:46:32;101802.13;;;23.99;47.47
48244;BME280;34053;51.088;6.572;2023-06-24T10:49:23;101802.88;;;24.01;47.06
48244;BME280;34053;51.088;6.572;2023-06-24T10:56:21;101795.97;;;24.37;48.84
48244;BME280;34053;51.088;6.572;2023-06-24T10:59:12;101787.09;;;24.49;49.42
48244;BME280;34053;51.088;6.572;2023-06-24T11:02:03;101791.78;;;24.59;49.19
48244;BME280;34053;51.088;6.572;2023-06-24T11:05:01;101783.56;;;24.75;48.50
48244;BME280;34053;51.088;6.572;2023-06-24T11:07:52;101787.31;;;24.46;44.31
48244;BME280;34053;51.088;6.572;2023-06-24T11:10:47;101783.44;;;24.76;44.41
48244;BME280;34053;51.088;6.572;2023-06-24T11:13:41;101790.00;;;24.98;42.01
48244;BME280;34053;51.088;6.572;2023-06-24T11:16:31;101782.09;;;24.71;38.81
48244;BME280;34053;51.088;6.572;2023-06-24T11:19:25;101777.34;;;24.87;40.68
48244;BME280;34053;51.088;6.572;2023-06-24T11:22:16;101778.94;;;25.03;39.67
48244;BME280;34053;51.088;6.572;2023-06-24T11:25:20;101775.38;;;24.89;40.71
48244;BME280;34053;51.088;6.572;2023-06-24T11:28:16;101776.28;;;25.27;39.57
48244;BME280;34053;51.088;6.572;2023-06-24T11:31:07;101771.81;;;25.14;40.60
48244;BME280;34053;51.088;6.572;2023-06-24T11:34:00;101765.81;;;25.35;36.88
48244;BME280;34053;51.088;6.572;2023-06-24T11:36:51;101766.50;;;25.26;37.86
48244;BME280;34053;51.088;6.572;2023-06-24T11:39:43;101759.34;;;25.51;34.75
48244;BME280;34053;51.088;6.572;2023-06-24T11:42:38;101762.78;;;25.53;34.25
48244;BME280;34053;51.088;6.572;2023-06-24T11:45:31;101755.50;;;25.66;33.09
48244;BME280;34053;51.088;6.572;2023-06-24T11:48:22;101762.53;;;25.80;35.79
48244;BME280;34053;51.088;6.572;2023-06-24T11:51:13;101771.41;;;25.93;36.31
48244;BME280;34053;51.088;6.572;2023-06-24T11:54:05;101758.03;;;25.81;38.38
48244;BME280;34053;51.088;6.572;2023-06-24T11:56:56;101748.25;;;26.15;37.95
48244;BME280;34053;51.088;6.572;2023-06-24T11:59:51;101749.88;;;26.29;36.40
48244;BME280;34053;51.088;6.572;2023-06-24T12:02:43;101751.88;;;26.38;36.42
48244;BME280;34053;51.088;6.572;2023-06-24T12:05:35;101743.06;;;26.36;36.72
48244;BME280;34053;51.088;6.572;2023-06-24T12:08:26;101739.03;;;26.65;37.68
48244;BME280;34053;51.088;6.572;2023-06-24T12:11:17;101737.94;;;26.90;35.86
48244;BME280;34053;51.088;6.572;2023-06-24T12:14:08;101738.66;;;26.69;37.39
48244;BME280;34053;51.088;6.572;2023-06-24T12:16:59;101730.84;;;27.00;36.67
48244;BME280;34053;51.088;6.572;2023-06-24T12:19:49;101732.31;;;27.05;35.92
48244;BME280;34053;51.088;6.572;2023-06-24T12:22:41;101722.06;;;27.31;36.11
48244;BME280;34053;51.088;6.572;2023-06-24T12:25:32;101734.31;;;27.35;37.27
48244;BME280;34053;51.088;6.572;2023-06-24T12:28:23;101731.50;;;27.25;37.55
48244;BME280;34053;51.088;6.572;2023-06-24T12:31:14;101724.94;;;27.18;37.32
48244;BME280;34053;51.088;6.572;2023-06-24T12:34:05;101722.22;;;27.29;35.48
48244;BME280;34053;51.088;6.572;2023-06-24T12:36:56;101720.66;;;27.15;35.76
48244;BME280;34053;51.088;6.572;2023-06-24T12:39:46;101712.06;;;27.87;33.90
48244;BME280;34053;51.088;6.572;2023-06-24T12:42:38;101716.06;;;27.71;36.12
48244;BME280;34053;51.088;6.572;2023-06-24T12:45:28;101722.25;;;27.83;35.85
48244;BME280;34053;51.088;6.572;2023-06-24T12:48:19;101719.41;;;28.06;33.48
48244;BME280;34053;51.088;6.572;2023-06-24T12:51:10;101709.91;;;28.02;32.76
48244;BME280;34053;51.088;6.572;2023-06-24T12:54:01;101711.25;;;28.07;36.25
48244;BME280;34053;51.088;6.572;2023-06-24T12:56:52;101713.19;;;28.05;35.39
48244;BME280;34053;51.088;6.572;2023-06-24T12:59:43;101707.63;;;28.18;32.67
48244;BME280;34053;51.088;6.572;2023-06-24T13:02:35;101697.81;;;28.17;35.38
48244;BME280;34053;51.088;6.572;2023-06-24T13:05:26;101702.22;;;28.80;32.30
48244;BME280;34053;51.088;6.572;2023-06-24T13:08:17;101704.03;;;29.20;31.13
48244;BME280;34053;51.088;6.572;2023-06-24T13:11:08;101709.88;;;28.75;33.46
48244;BME280;34053;51.088;6.572;2023-06-24T13:14:02;101707.97;;;29.07;33.02
48244;BME280;34053;51.088;6.572;2023-06-24T13:17:02;101698.03;;;29.17;32.29
48244;BME280;34053;51.088;6.572;2023-06-24T13:19:52;101697.75;;;29.20;31.42
48244;BME280;34053;51.088;6.572;2023-06-24T13:22:43;101688.66;;;29.21;33.80
48244;BME280;34053;51.088;6.572;2023-06-24T13:25:34;101695.19;;;29.09;33.39
48244;BME280;34053;51.088;6.572;2023-06-24T13:28:25;101688.66;;;29.31;33.54
48244;BME280;34053;51.088;6.572;2023-06-24T13:31:16;101685.00;;;29.51;30.47
48244;BME280;34053;51.088;6.572;2023-06-24T13:34:07;101688.25;;;29.65;29.50
48244;BME280;34053;51.088;6.572;2023-06-24T13:36:58;101678.31;;;29.36;29.44
48244;BME280;34053;51.088;6.572;2023-06-24T13:39:49;101678.81;;;29.30;30.29
48244;BME280;34053;51.088;6.572;2023-06-24T13:42:40;101679.41;;;29.63;27.81
48244;BME280;34053;51.088;6.572;2023-06-24T13:45:31;101683.56;;;29.67;30.85
48244;BME280;34053;51.088;6.572;2023-06-24T13:48:23;101685.81;;;29.81;31.39
48244;BME280;34053;51.088;6.572;2023-06-24T13:51:14;101683.00;;;29.63;30.86
48244;BME280;34053;51.088;6.572;2023-06-24T13:54:04;101678.81;;;29.89;28.20
48244;BME280;34053;51.088;6.572;2023-06-24T13:56:55;101671.41;;;29.91;30.39
48244;BME280;34053;51.088;6.572;2023-06-24T13:59:46;101668.16;;;29.67;28.85
48244;BME280;34053;51.088;6.572;2023-06-24T14:02:37;101664.28;;;30.37;26.30
48244;BME280;34053;51.088;6.572;2023-06-24T14:05:28;101655.56;;;30.15;29.50
48244;BME280;34053;51.088;6.572;2023-06-24T14:08:18;101656.03;;;30.01;27.23
48244;BME280;34053;51.088;6.572;2023-06-24T14:11:09;101660.75;;;29.89;27.57
48244;BME280;34053;51.088;6.572;2023-06-24T14:14:00;101651.06;;;29.96;28.35
48244;BME280;34053;51.088;6.572;2023-06-24T14:16:51;101641.22;;;30.71;25.03
48244;BME280;34053;51.088;6.572;2023-06-24T14:19:42;101651.16;;;30.80;25.51
48244;BME280;34053;51.088;6.572;2023-06-24T14:22:33;101645.28;;;30.57;29.16
48244;BME280;34053;51.088;6.572;2023-06-24T14:25:24;101651.19;;;30.42;25.00
48244;BME280;34053;51.088;6.572;2023-06-24T14:28:15;101647.94;;;30.29;26.21
48244;BME280;34053;51.088;6.572;2023-06-24T14:31:05;101645.25;;;30.29;26.22
48244;BME280;34053;51.088;6.572;2023-06-24T14:33:56;101638.16;;;30.56;26.55
48244;BME280;34053;51.088;6.572;2023-06-24T14:36:47;101642.28;;;30.50;27.91
48244;BME280;34053;51.088;6.572;2023-06-24T14:39:39;101642.03;;;30.53;27.13
48244;BME280;34053;51.088;6.572;2023-06-24T14:42:31;101635.09;;;30.87;27.79
48244;BME280;34053;51.088;6.572;2023-06-24T14:45:22;101631.38;;;30.70;25.08
48244;BME280;34053;51.088;6.572;2023-06-24T14:48:13;101628.03;;;30.86;25.17
48244;BME280;34053;51.088;6.572;2023-06-24T14:51:04;101632.81;;;30.92;24.83
48244;BME280;34053;51.088;6.572;2023-06-24T14:53:54;101623.97;;;31.44;27.71
48244;BME280;34053;51.088;6.572;2023-06-24T14:56:45;101628.19;;;31.83;27.08
48244;BME280;34053;51.088;6.572;2023-06-24T14:59:37;101621.69;;;31.76;25.41
48244;BME280;34053;51.088;6.572;2023-06-24T15:02:28;101624.47;;;31.84;23.54
48244;BME280;34053;51.088;6.572;2023-06-24T15:05:19;101617.63;;;32.06;24.94
48244;BME280;34053;51.088;6.572;2023-06-24T15:08:10;101609.47;;;32.32;24.75
48244;BME280;34053;51.088;6.572;2023-06-24T15:11:00;101616.97;;;32.47;24.96
48244;BME280;34053;51.088;6.572;2023-06-24T15:13:51;101614.22;;;32.39;23.78
48244;BME280;34053;51.088;6.572;2023-06-24T15:16:42;101608.00;;;32.55;23.40
48244;BME280;34053;51.088;6.572;2023-06-24T15:19:33;101609.63;;;32.90;24.25
48244;BME280;34053;51.088;6.572;2023-06-24T15:22:24;101613.69;;;32.78;22.93
48244;BME280;34053;51.088;6.572;2023-06-24T15:25:14;101604.03;;;33.17;22.42